sensor_id;sensor_type;location;lat;lon;timestamp;pressure;altitude;pressure_sealevel;temperature;humidity
27712;BME280;2377;51.734;8.950;2022-08-19T00:00:39;97658.53;;;21.72;75.93
27712;BME280;2377;51.734;8.950;2022-08-19T00:03:06;97663.56;;;21.68;75.99
27712;BME280;2377;51.734;8.950;2022-08-19T00:05:34;97661.41;;;21.70;75.63
27712;BME280;2377;51.734;8.950;2022-08-19T00:08:01;97669.72;;;21.72;75.40
27712;BME280;2377;51.734;8.950;2022-08-19T00:10:28;97669.16;;;21.76;75.19
27712;BME280;2377;51.734;8.950;2022-08-19T00:12:55;97669.34;;;21.79;75.36
27712;BME280;2377;51.734;8.950;2022-08-19T00:15:23;97668.00;;;21.82;74.99
27712;BME280;2377;51.734;8.950;2022-08-19T00:17:51;97662.78;;;21.82;75.08
27712;BME280;2377;51.734;8.950;2022-08-19T00:20:21;97662.00;;;21.81;75.27
27712;BME280;2377;51.734;8.950;2022-08-19T00:22:48;97665.22;;;21.78;75.49
27712;BME280;2377;51.734;8.950;2022-08-19T00:25:16;97673.00;;;21.78;75.33
27712;BME280;2377;51.734;8.950;2022-08-19T00:27:44;97667.81;;;21.78;74.92
27712;BME280;2377;51.734;8.950;2022-08-19T00:30:12;97668.56;;;21.79;75.02
27712;BME280;2377;51.734;8.950;2022-08-19T00:32:39;97667.59;;;21.74;75.66
27712;BME280;2377;51.734;8.950;2022-08-19T00:35:08;97662.78;;;21.68;76.02
27712;BME280;2377;51.734;8.950;2022-08-19T00:37:38;97659.50;;;21.62;75.94
27712;BME280;2377;51.734;8.950;2022-08-19T00:40:10;97649.59;;;21.64;76.17
27712;BME280;2377;51.734;8.950;2022-08-19T00:42:38;97645.41;;;21.63;75.97
27712;BME280;2377;51.734;8.950;2022-08-19T00:45:13;97640.22;;;21.63;76.06
27712;BME280;2377;51.734;8.950;2022-08-19T00:47:41;97637.94;;;21.62;75.96
27712;BME280;2377;51.734;8.950;2022-08-19T00:50:13;97630.50;;;21.55;76.47
27712;BME280;2377;51.734;8.950;2022-08-19T00:52:46;97621.72;;;21.51;76.67
27712;BME280;2377;51.734;8.950;2022-08-19T00:55:19;97626.25;;;21.45;77.06
27712;BME280;2377;51.734;8.950;2022-08-19T00:57:53;97618.53;;;21.40;77.40
27712;BME280;2377;51.734;8.950;2022-08-19T01:00:24;97621.38;;;21.39;77.36
27712;BME280;2377;51.734;8.950;2022-08-19T01:02:52;97620.13;;;21.36;77.66
27712;BME280;2377;51.734;8.950;2022-08-19T01:05:24;97625.13;;;21.32;77.81
27712;BME280;2377;51.734;8.950;2022-08-19T01:07:56;97629.56;;;21.32;77.70
27712;BME280;2377;51.734;8.950;2022-08-19T01:10:27;97622.53;;;21.32;77.68
27712;BME280;2377;51.734;8.950;2022-08-19T01:12:58;97614.25;;;21.30;77.75
27712;BME280;2377;51.734;8.950;2022-08-19T01:15:30;97620.50;;;21.29;77.59
27712;BME280;2377;51.734;8.950;2022-08-19T01:18:03;97622.91;;;21.26;78.02
27712;BME280;2377;51.734;8.950;2022-08-19T01:20:32;97622.72;;;21.22;78.01
27712;BME280;2377;51.734;8.950;2022-08-19T01:23:02;97618.28;;;21.23;77.82
27712;BME280;2377;51.734;8.950;2022-08-19T01:25:36;97616.66;;;21.27;77.34
27712;BME280;2377;51.734;8.950;2022-08-19T01:28:07;97620.03;;;21.27;77.05
27712;BME280;2377;51.734;8.950;2022-08-19T01:30:35;97611.94;;;21.29;76.62
27712;BME280;2377;51.734;8.950;2022-08-19T01:33:03;97608.56;;;21.28;76.22
27712;BME280;2377;51.734;8.950;2022-08-19T01:35:32;97610.69;;;21.26;76.21
27712;BME280;2377;51.734;8.950;2022-08-19T01:38:06;97611.06;;;21.20;76.10
27712;BME280;2377;51.734;8.950;2022-08-19T01:40:39;97610.84;;;21.16;75.97
27712;BME280;2377;51.734;8.950;2022-08-19T01:43:08;97611.44;;;21.13;75.89
27712;BME280;2377;51.734;8.950;2022-08-19T01:45:36;97611.50;;;21.08;75.29
27712;BME280;2377;51.734;8.950;2022-08-19T01:48:06;97613.91;;;21.04;75.08
27712;BME280;2377;51.734;8.950;2022-08-19T01:50:35;97613.22;;;20.99;74.85
27712;BME280;2377;51.734;8.950;2022-08-19T01:53:08;97611.19;;;20.96;74.99
27712;BME280;2377;51.734;8.950;2022-08-19T01:55:39;97604.25;;;20.91;74.87
27712;BME280;2377;51.734;8.950;2022-08-19T01:58:11;97602.69;;;20.90;74.73
27712;BME280;2377;51.734;8.950;2022-08-19T02:00:40;97606.63;;;20.87;75.07
27712;BME280;2377;51.734;8.950;2022-08-19T02:03:08;97610.56;;;20.85;75.26
27712;BME280;2377;51.734;8.950;2022-08-19T02:05:37;97602.28;;;20.83;75.20
27712;BME280;2377;51.734;8.950;2022-08-19T02:08:06;97600.28;;;20.80;75.50
27712;BME280;2377;51.734;8.950;2022-08-19T02:10:38;97592.06;;;20.73;75.44
27712;BME280;2377;51.734;8.950;2022-08-19T02:13:06;97591.34;;;20.67;75.39
27712;BME280;2377;51.734;8.950;2022-08-19T02:15:33;97587.81;;;20.63;75.43
27712;BME280;2377;51.734;8.950;2022-08-19T02:18:00;97588.34;;;20.60;75.31
27712;BME280;2377;51.734;8.950;2022-08-19T02:20:27;97587.38;;;20.56;75.65
27712;BME280;2377;51.734;8.950;2022-08-19T02:22:55;97590.22;;;20.54;75.56
27712;BME280;2377;51.734;8.950;2022-08-19T02:25:23;97596.75;;;20.52;75.29
27712;BME280;2377;51.734;8.950;2022-08-19T02:27:50;97592.91;;;20.49;75.40
27712;BME280;2377;51.734;8.950;2022-08-19T02:30:18;97598.66;;;20.46;75.61
27712;BME280;2377;51.734;8.950;2022-08-19T02:32:45;97601.03;;;20.42;75.71
27712;BME280;2377;51.734;8.950;2022-08-19T02:35:13;97587.84;;;20.39;75.42
27712;BME280;2377;51.734;8.950;2022-08-19T02:37:41;97589.19;;;20.36;75.62
27712;BME280;2377;51.734;8.950;2022-08-19T02:40:29;97585.88;;;20.31;75.84
27712;BME280;2377;51.734;8.950;2022-08-19T02:42:59;97584.63;;;20.28;75.77
27712;BME280;2377;51.734;8.950;2022-08-19T02:45:26;97592.69;;;20.26;75.73
27712;BME280;2377;51.734;8.950;2022-08-19T02:47:53;97595.09;;;20.23;75.79
27712;BME280;2377;51.734;8.950;2022-08-19T02:50:22;97593.31;;;20.18;76.10
27712;BME280;2377;51.734;8.950;2022-08-19T02:52:49;97583.22;;;20.17;76.29
27712;BME280;2377;51.734;8.950;2022-08-19T02:55:16;97586.38;;;20.14;76.15
27712;BME280;2377;51.734;8.950;2022-08-19T02:57:45;97582.53;;;20.11;76.07
27712;BME280;2377;51.734;8.950;2022-08-19T03:00:14;97594.22;;;20.09;76.16
27712;BME280;2377;51.734;8.950;2022-08-19T03:02:41;97587.28;;;20.04;76.42
27712;BME280;2377;51.734;8.950;2022-08-19T03:05:10;97589.66;;;20.00;76.35
27712;BME280;2377;51.734;8.950;2022-08-19T03:07:37;97572.81;;;19.98;76.27
27712;BME280;2377;51.734;8.950;2022-08-19T03:10:06;97575.97;;;19.95;76.51
27712;BME280;2377;51.734;8.950;2022-08-19T03:12:36;97576.81;;;19.90;76.52
27712;BME280;2377;51.734;8.950;2022-08-19T03:15:08;97575.81;;;19.86;76.93
27712;BME280;2377;51.734;8.950;2022-08-19T03:17:36;97574.81;;;19.82;76.96
27712;BME280;2377;51.734;8.950;2022-08-19T03:20:12;97567.38;;;19.75;77.07
27712;BME280;2377;51.734;8.950;2022-08-19T03:22:39;97581.66;;;19.73;76.88
27712;BME280;2377;51.734;8.950;2022-08-19T03:25:07;97583.53;;;19.67;76.25
27712;BME280;2377;51.734;8.950;2022-08-19T03:27:34;97588.47;;;19.63;75.85
27712;BME280;2377;51.734;8.950;2022-08-19T03:30:02;97586.72;;;19.59;75.71
27712;BME280;2377;51.734;8.950;2022-08-19T03:32:31;97588.34;;;19.55;75.68
27712;BME280;2377;51.734;8.950;2022-08-19T03:34:58;97581.66;;;19.49;76.11
27712;BME280;2377;51.734;8.950;2022-08-19T03:37:25;97586.34;;;19.47;76.11
27712;BME280;2377;51.734;8.950;2022-08-19T03:39:52;97590.75;;;19.46;76.26
27712;BME280;2377;51.734;8.950;2022-08-19T03:42:19;97605.03;;;19.43;76.10
27712;BME280;2377;51.734;8.950;2022-08-19T03:44:46;97603.28;;;19.39;75.92
27712;BME280;2377;51.734;8.950;2022-08-19T03:47:13;97600.50;;;19.30;75.86
27712;BME280;2377;51.734;8.950;2022-08-19T03:49:44;97608.88;;;19.22;76.11
27712;BME280;2377;51.734;8.950;2022-08-19T03:52:12;97609.44;;;19.14;76.70
27712;BME280;2377;51.734;8.950;2022-08-19T03:54:39;97615.97;;;19.11;76.76
27712;BME280;2377;51.734;8.950;2022-08-19T03:57:07;97610.78;;;19.11;76.55
27712;BME280;2377;51.734;8.950;2022-08-19T03:59:37;97612.84;;;19.09;76.50
27712;BME280;2377;51.734;8.950;2022-08-19T04:02:09;97626.38;;;19.06;76.07
27712;BME280;2377;51.734;8.950;2022-08-19T04:04:37;97622.25;;;19.00;76.69
27712;BME280;2377;51.734;8.950;2022-08-19T04:07:06;97632.63;;;19.00;76.87
27712;BME280;2377;51.734;8.950;2022-08-19T04:09:34;97623.81;;;19.01;76.62
27712;BME280;2377;51.734;8.950;2022-08-19T04:12:04;97624.63;;;18.96;76.46
27712;BME280;2377;51.734;8.950;2022-08-19T04:14:32;97626.47;;;18.96;76.43
27712;BME280;2377;51.734;8.950;2022-08-19T04:17:02;97628.53;;;18.94;76.25
27712;BME280;2377;51.734;8.950;2022-08-19T04:19:31;97625.19;;;18.93;76.78
27712;BME280;2377;51.734;8.950;2022-08-19T04:21:59;97633.72;;;18.94;76.93
27712;BME280;2377;51.734;8.950;2022-08-19T04:24:27;97621.78;;;18.93;77.06
27712;BME280;2377;51.734;8.950;2022-08-19T04:26:55;97626.22;;;18.92;77.62
27712;BME280;2377;51.734;8.950;2022-08-19T04:29:24;97626.50;;;18.91;77.60
27712;BME280;2377;51.734;8.950;2022-08-19T04:31:55;97633.72;;;18.94;77.97
27712;BME280;2377;51.734;8.950;2022-08-19T04:34:25;97626.00;;;18.89;78.60
27712;BME280;2377;51.734;8.950;2022-08-19T04:36:55;97621.56;;;18.89;79.36
27712;BME280;2377;51.734;8.950;2022-08-19T04:39:28;97620.81;;;18.89;79.34
27712;BME280;2377;51.734;8.950;2022-08-19T04:42:10;97618.44;;;18.92;79.73
27712;BME280;2377;51.734;8.950;2022-08-19T04:44:54;97624.38;;;18.98;79.71
27712;BME280;2377;51.734;8.950;2022-08-19T04:47:22;97626.91;;;19.03;80.50
27712;BME280;2377;51.734;8.950;2022-08-19T04:49:49;97631.53;;;19.06;80.36
27712;BME280;2377;51.734;8.950;2022-08-19T04:52:16;97637.75;;;19.10;80.59
27712;BME280;2377;51.734;8.950;2022-08-19T04:54:44;97635.66;;;19.12;80.68
27712;BME280;2377;51.734;8.950;2022-08-19T04:57:11;97630.69;;;19.16;80.83
27712;BME280;2377;51.734;8.950;2022-08-19T04:59:39;97639.72;;;19.18;81.43
27712;BME280;2377;51.734;8.950;2022-08-19T05:02:08;97635.06;;;19.20;81.35
27712;BME280;2377;51.734;8.950;2022-08-19T05:04:36;97635.56;;;19.22;81.66
27712;BME280;2377;51.734;8.950;2022-08-19T05:07:04;97630.88;;;19.25;81.60
27712;BME280;2377;51.734;8.950;2022-08-19T05:09:32;97632.41;;;19.26;81.36
27712;BME280;2377;51.734;8.950;2022-08-19T05:12:00;97642.53;;;19.27;81.61
27712;BME280;2377;51.734;8.950;2022-08-19T05:14:27;97642.25;;;19.29;81.64
27712;BME280;2377;51.734;8.950;2022-08-19T05:16:54;97643.25;;;19.33;82.00
27712;BME280;2377;51.734;8.950;2022-08-19T05:19:22;97638.56;;;19.35;82.03
27712;BME280;2377;51.734;8.950;2022-08-19T05:22:06;97643.69;;;19.40;82.32
27712;BME280;2377;51.734;8.950;2022-08-19T05:24:51;97643.22;;;19.38;83.30
27712;BME280;2377;51.734;8.950;2022-08-19T05:27:19;97645.81;;;19.33;84.16
27712;BME280;2377;51.734;8.950;2022-08-19T05:29:46;97645.38;;;19.26;86.07
27712;BME280;2377;51.734;8.950;2022-08-19T05:32:13;97644.41;;;19.21;85.67
27712;BME280;2377;51.734;8.950;2022-08-19T05:34:41;97632.91;;;19.28;86.12
27712;BME280;2377;51.734;8.950;2022-08-19T05:37:08;97639.41;;;19.25;85.92
27712;BME280;2377;51.734;8.950;2022-08-19T05:39:37;97636.06;;;19.25;86.25
27712;BME280;2377;51.734;8.950;2022-08-19T05:42:07;97635.81;;;19.26;86.53
27712;BME280;2377;51.734;8.950;2022-08-19T05:44:39;97629.06;;;19.25;87.00
27712;BME280;2377;51.734;8.950;2022-08-19T05:47:12;97637.84;;;19.29;86.91
27712;BME280;2377;51.734;8.950;2022-08-19T05:49:41;97631.88;;;19.29;87.27
27712;BME280;2377;51.734;8.950;2022-08-19T05:52:12;97636.00;;;19.30;86.99
27712;BME280;2377;51.734;8.950;2022-08-19T05:54:41;97626.41;;;19.30;87.00
27712;BME280;2377;51.734;8.950;2022-08-19T05:57:11;97628.69;;;19.37;87.07
27712;BME280;2377;51.734;8.950;2022-08-19T05:59:39;97619.66;;;19.34;87.12
27712;BME280;2377;51.734;8.950;2022-08-19T06:02:09;97626.88;;;19.37;87.31
27712;BME280;2377;51.734;8.950;2022-08-19T06:04:36;97619.38;;;19.36;86.92
27712;BME280;2377;51.734;8.950;2022-08-19T06:07:03;97619.88;;;19.38;86.83
27712;BME280;2377;51.734;8.950;2022-08-19T06:09:30;97627.72;;;19.28;88.10
27712;BME280;2377;51.734;8.950;2022-08-19T06:11:59;97634.25;;;19.25;87.94
27712;BME280;2377;51.734;8.950;2022-08-19T06:14:29;97631.38;;;19.27;87.58
27712;BME280;2377;51.734;8.950;2022-08-19T06:16:59;97627.22;;;19.31;87.43
27712;BME280;2377;51.734;8.950;2022-08-19T06:19:29;97631.06;;;19.33;87.57
27712;BME280;2377;51.734;8.950;2022-08-19T06:21:58;97628.19;;;19.35;88.12
27712;BME280;2377;51.734;8.950;2022-08-19T06:24:27;97626.78;;;19.18;89.04
27712;BME280;2377;51.734;8.950;2022-08-19T06:26:59;97620.25;;;19.26;88.48
27712;BME280;2377;51.734;8.950;2022-08-19T06:29:28;97633.44;;;19.30;88.53
27712;BME280;2377;51.734;8.950;2022-08-19T06:32:01;97633.88;;;19.37;88.55
27712;BME280;2377;51.734;8.950;2022-08-19T06:34:32;97635.88;;;19.45;88.13
27712;BME280;2377;51.734;8.950;2022-08-19T06:37:01;97633.19;;;19.55;87.42
27712;BME280;2377;51.734;8.950;2022-08-19T06:39:32;97631.66;;;19.54;87.51
27712;BME280;2377;51.734;8.950;2022-08-19T06:42:04;97637.59;;;19.55;87.39
27712;BME280;2377;51.734;8.950;2022-08-19T06:44:36;97639.38;;;19.59;87.01
27712;BME280;2377;51.734;8.950;2022-08-19T06:47:09;97643.00;;;19.58;86.76
27712;BME280;2377;51.734;8.950;2022-08-19T06:49:36;97640.69;;;19.57;86.77
27712;BME280;2377;51.734;8.950;2022-08-19T06:52:05;97636.78;;;19.59;86.90
27712;BME280;2377;51.734;8.950;2022-08-19T06:54:32;97643.44;;;19.65;86.44
27712;BME280;2377;51.734;8.950;2022-08-19T06:57:01;97648.84;;;19.74;86.20
27712;BME280;2377;51.734;8.950;2022-08-19T06:59:30;97648.00;;;19.79;85.66
27712;BME280;2377;51.734;8.950;2022-08-19T07:02:02;97645.91;;;19.81;85.56
27712;BME280;2377;51.734;8.950;2022-08-19T07:04:35;97658.28;;;19.89;85.26
27712;BME280;2377;51.734;8.950;2022-08-19T07:07:08;97663.69;;;19.93;84.79
27712;BME280;2377;51.734;8.950;2022-08-19T07:09:38;97655.16;;;19.92;84.77
27712;BME280;2377;51.734;8.950;2022-08-19T07:12:09;97667.56;;;19.95;85.01
27712;BME280;2377;51.734;8.950;2022-08-19T07:14:38;97670.09;;;20.00;84.67
27712;BME280;2377;51.734;8.950;2022-08-19T07:17:08;97676.97;;;20.10;84.29
27712;BME280;2377;51.734;8.950;2022-08-19T07:19:38;97684.44;;;20.17;84.17
27712;BME280;2377;51.734;8.950;2022-08-19T07:22:07;97693.72;;;20.23;83.59
27712;BME280;2377;51.734;8.950;2022-08-19T07:24:34;97696.44;;;20.32;83.76
27712;BME280;2377;51.734;8.950;2022-08-19T07:27:04;97703.84;;;20.43;83.18
27712;BME280;2377;51.734;8.950;2022-08-19T07:29:34;97705.25;;;20.55;82.65
27712;BME280;2377;51.734;8.950;2022-08-19T07:32:04;97721.19;;;20.72;81.35
27712;BME280;2377;51.734;8.950;2022-08-19T07:34:32;97699.91;;;20.89;79.85
27712;BME280;2377;51.734;8.950;2022-08-19T07:37:04;97706.22;;;21.02;80.06
27712;BME280;2377;51.734;8.950;2022-08-19T07:39:34;97706.41;;;21.24;78.77
27712;BME280;2377;51.734;8.950;2022-08-19T07:42:06;97708.69;;;21.26;77.51
27712;BME280;2377;51.734;8.950;2022-08-19T07:44:33;97714.34;;;21.33;76.99
27712;BME280;2377;51.734;8.950;2022-08-19T07:47:03;97720.72;;;21.41;76.47
27712;BME280;2377;51.734;8.950;2022-08-19T07:49:30;97724.22;;;21.50;75.67
27712;BME280;2377;51.734;8.950;2022-08-19T07:52:01;97727.97;;;21.44;75.15
27712;BME280;2377;51.734;8.950;2022-08-19T07:54:34;97732.34;;;21.62;76.14
27712;BME280;2377;51.734;8.950;2022-08-19T07:57:03;97728.16;;;21.80;74.75
27712;BME280;2377;51.734;8.950;2022-08-19T07:59:31;97734.91;;;21.95;74.43
27712;BME280;2377;51.734;8.950;2022-08-19T08:01:59;97745.22;;;22.00;73.90
27712;BME280;2377;51.734;8.950;2022-08-19T08:04:26;97747.03;;;21.86;72.27
27712;BME280;2377;51.734;8.950;2022-08-19T08:07:12;97755.84;;;22.04;71.89
27712;BME280;2377;51.734;8.950;2022-08-19T08:09:58;97753.41;;;22.07;72.72
27712;BME280;2377;51.734;8.950;2022-08-19T08:12:31;97752.88;;;22.38;72.58
27712;BME280;2377;51.734;8.950;2022-08-19T08:15:00;97754.31;;;22.58;71.46
27712;BME280;2377;51.734;8.950;2022-08-19T08:17:30;97749.09;;;22.58;70.61
27712;BME280;2377;51.734;8.950;2022-08-19T08:19:57;97744.38;;;22.60;69.87
27712;BME280;2377;51.734;8.950;2022-08-19T08:22:25;97756.59;;;22.59;69.68
27712;BME280;2377;51.734;8.950;2022-08-19T08:25:16;97753.13;;;22.50;71.07
27712;BME280;2377;51.734;8.950;2022-08-19T08:27:45;97754.19;;;22.63;70.67
27712;BME280;2377;51.734;8.950;2022-08-19T08:30:17;97759.41;;;22.63;70.07
27712;BME280;2377;51.734;8.950;2022-08-19T08:32:44;97760.19;;;22.64;69.59
27712;BME280;2377;51.734;8.950;2022-08-19T08:35:16;97760.19;;;22.64;70.09
27712;BME280;2377;51.734;8.950;2022-08-19T08:37:45;97754.94;;;22.77;70.88
27712;BME280;2377;51.734;8.950;2022-08-19T08:40:22;97750.56;;;23.00;70.19
27712;BME280;2377;51.734;8.950;2022-08-19T08:42:57;97764.13;;;23.11;69.73
27712;BME280;2377;51.734;8.950;2022-08-19T08:45:32;97752.13;;;23.24;68.80
27712;BME280;2377;51.734;8.950;2022-08-19T08:48:09;97754.97;;;23.36;68.03
27712;BME280;2377;51.734;8.950;2022-08-19T08:50:42;97762.19;;;23.39;68.36
27712;BME280;2377;51.734;8.950;2022-08-19T08:53:17;97765.63;;;23.49;68.49
27712;BME280;2377;51.734;8.950;2022-08-19T08:55:46;97758.63;;;23.58;67.25
27712;BME280;2377;51.734;8.950;2022-08-19T08:58:22;97752.94;;;23.56;66.58
27712;BME280;2377;51.734;8.950;2022-08-19T09:00:52;97769.34;;;23.56;68.12
27712;BME280;2377;51.734;8.950;2022-08-19T09:03:24;97767.66;;;23.74;68.28
27712;BME280;2377;51.734;8.950;2022-08-19T09:06:01;97765.59;;;23.94;66.93
27712;BME280;2377;51.734;8.950;2022-08-19T09:08:52;97761.44;;;23.93;65.94
27712;BME280;2377;51.734;8.950;2022-08-19T09:11:40;97775.59;;;23.92;66.05
27712;BME280;2377;51.734;8.950;2022-08-19T09:14:30;97762.00;;;23.81;65.24
27712;BME280;2377;51.734;8.950;2022-08-19T09:17:00;97765.81;;;23.75;66.88
27712;BME280;2377;51.734;8.950;2022-08-19T09:19:29;97756.66;;;23.86;65.50
27712;BME280;2377;51.734;8.950;2022-08-19T09:21:57;97763.69;;;23.77;65.71
27712;BME280;2377;51.734;8.950;2022-08-19T09:24:26;97752.09;;;23.69;65.80
27712;BME280;2377;51.734;8.950;2022-08-19T09:26:54;97758.50;;;23.63;66.00
27712;BME280;2377;51.734;8.950;2022-08-19T09:29:21;97760.34;;;23.62;66.62
27712;BME280;2377;51.734;8.950;2022-08-19T09:31:48;97774.28;;;23.58;67.27
27712;BME280;2377;51.734;8.950;2022-08-19T09:34:16;97765.44;;;23.68;66.73
27712;BME280;2377;51.734;8.950;2022-08-19T09:36:45;97776.47;;;23.64;64.78
27712;BME280;2377;51.734;8.950;2022-08-19T09:39:12;97771.38;;;23.59;65.83
27712;BME280;2377;51.734;8.950;2022-08-19T09:41:39;97773.25;;;23.59;65.58
27712;BME280;2377;51.734;8.950;2022-08-19T09:44:08;97770.31;;;23.60;65.28
27712;BME280;2377;51.734;8.950;2022-08-19T09:46:36;97763.00;;;23.71;65.52
27712;BME280;2377;51.734;8.950;2022-08-19T09:49:04;97765.47;;;23.99;65.01
27712;BME280;2377;51.734;8.950;2022-08-19T09:51:32;97756.38;;;24.27;64.88
27712;BME280;2377;51.734;8.950;2022-08-19T09:54:02;97761.22;;;24.52;61.46
27712;BME280;2377;51.734;8.950;2022-08-19T09:56:31;97763.38;;;24.58;62.07
27712;BME280;2377;51.734;8.950;2022-08-19T09:58:59;97766.03;;;24.67;61.01
27712;BME280;2377;51.734;8.950;2022-08-19T10:01:29;97758.94;;;24.85;58.84
27712;BME280;2377;51.734;8.950;2022-08-19T10:03:59;97755.72;;;24.97;58.93
27712;BME280;2377;51.734;8.950;2022-08-19T10:06:29;97761.44;;;25.07;55.60
27712;BME280;2377;51.734;8.950;2022-08-19T10:08:58;97750.94;;;24.99;55.39
27712;BME280;2377;51.734;8.950;2022-08-19T10:11:26;97762.19;;;25.08;55.00
27712;BME280;2377;51.734;8.950;2022-08-19T10:13:54;97756.16;;;24.90;53.99
27712;BME280;2377;51.734;8.950;2022-08-19T10:16:23;97751.56;;;24.87;54.54
27712;BME280;2377;51.734;8.950;2022-08-19T10:18:54;97752.34;;;25.05;55.69
27712;BME280;2377;51.734;8.950;2022-08-19T10:21:25;97751.09;;;25.37;56.14
27712;BME280;2377;51.734;8.950;2022-08-19T10:23:55;97746.31;;;25.57;52.86
27712;BME280;2377;51.734;8.950;2022-08-19T10:26:26;97743.50;;;25.70;53.35
27712;BME280;2377;51.734;8.950;2022-08-19T10:28:54;97738.84;;;25.76;53.56
27712;BME280;2377;51.734;8.950;2022-08-19T10:31:29;97735.41;;;25.84;52.59
27712;BME280;2377;51.734;8.950;2022-08-19T10:33:58;97728.66;;;25.83;53.09
27712;BME280;2377;51.734;8.950;2022-08-19T10:36:29;97728.28;;;26.02;53.94
27712;BME280;2377;51.734;8.950;2022-08-19T10:39:00;97721.47;;;26.10;53.09
27712;BME280;2377;51.734;8.950;2022-08-19T10:41:35;97724.31;;;25.96;53.71
27712;BME280;2377;51.734;8.950;2022-08-19T10:44:06;97712.25;;;26.04;52.41
27712;BME280;2377;51.734;8.950;2022-08-19T10:46:37;97711.25;;;26.17;53.09
27712;BME280;2377;51.734;8.950;2022-08-19T10:49:10;97717.47;;;26.33;53.43
27712;BME280;2377;51.734;8.950;2022-08-19T10:51:38;97713.56;;;26.48;52.24
27712;BME280;2377;51.734;8.950;2022-08-19T10:54:23;97704.88;;;26.77;50.68
27712;BME280;2377;51.734;8.950;2022-08-19T10:57:12;97708.59;;;26.76;50.13
27712;BME280;2377;51.734;8.950;2022-08-19T10:59:38;97712.69;;;26.65;50.10
27712;BME280;2377;51.734;8.950;2022-08-19T11:02:09;97712.03;;;26.68;48.59
27712;BME280;2377;51.734;8.950;2022-08-19T11:04:40;97709.88;;;26.70;49.21
27712;BME280;2377;51.734;8.950;2022-08-19T11:07:08;97711.22;;;26.76;48.07
27712;BME280;2377;51.734;8.950;2022-08-19T11:09:40;97705.72;;;26.69;49.06
27712;BME280;2377;51.734;8.950;2022-08-19T11:12:09;97703.22;;;26.73;48.41
27712;BME280;2377;51.734;8.950;2022-08-19T11:14:38;97702.03;;;26.83;49.51
27712;BME280;2377;51.734;8.950;2022-08-19T11:17:06;97696.81;;;26.83;47.82
27712;BME280;2377;51.734;8.950;2022-08-19T11:19:34;97699.81;;;26.72;47.56
27712;BME280;2377;51.734;8.950;2022-08-19T11:22:03;97703.00;;;26.57;48.43
27712;BME280;2377;51.734;8.950;2022-08-19T11:24:31;97698.13;;;26.47;48.34
27712;BME280;2377;51.734;8.950;2022-08-19T11:27:03;97698.53;;;26.36;47.78
27712;BME280;2377;51.734;8.950;2022-08-19T11:29:32;97695.09;;;26.36;48.25
27712;BME280;2377;51.734;8.950;2022-08-19T11:32:03;97692.47;;;26.36;47.89
27712;BME280;2377;51.734;8.950;2022-08-19T11:34:30;97690.13;;;26.43;48.37
27712;BME280;2377;51.734;8.950;2022-08-19T11:36:57;97692.81;;;26.34;47.04
27712;BME280;2377;51.734;8.950;2022-08-19T11:39:29;97689.94;;;26.27;47.56
27712;BME280;2377;51.734;8.950;2022-08-19T11:41:59;97689.03;;;26.23;47.07
27712;BME280;2377;51.734;8.950;2022-08-19T11:44:27;97681.88;;;26.32;46.66
27712;BME280;2377;51.734;8.950;2022-08-19T11:46:56;97681.13;;;26.53;47.87
27712;BME280;2377;51.734;8.950;2022-08-19T11:49:26;97679.75;;;26.76;47.35
27712;BME280;2377;51.734;8.950;2022-08-19T11:51:53;97684.31;;;27.01;47.28
27712;BME280;2377;51.734;8.950;2022-08-19T11:54:20;97680.56;;;27.02;45.85
27712;BME280;2377;51.734;8.950;2022-08-19T11:56:48;97694.03;;;27.21;47.18
27712;BME280;2377;51.734;8.950;2022-08-19T11:59:15;97673.72;;;27.43;47.50
27712;BME280;2377;51.734;8.950;2022-08-19T12:01:42;97675.81;;;27.49;46.88
27712;BME280;2377;51.734;8.950;2022-08-19T12:04:10;97674.81;;;27.54;46.01
27712;BME280;2377;51.734;8.950;2022-08-19T12:06:40;97670.56;;;27.61;47.52
27712;BME280;2377;51.734;8.950;2022-08-19T12:09:09;97673.28;;;27.77;45.90
27712;BME280;2377;51.734;8.950;2022-08-19T12:11:39;97672.97;;;27.91;47.39
27712;BME280;2377;51.734;8.950;2022-08-19T12:14:11;97669.16;;;28.01;46.49
27712;BME280;2377;51.734;8.950;2022-08-19T12:16:40;97670.56;;;28.11;44.53
27712;BME280;2377;51.734;8.950;2022-08-19T12:19:07;97673.31;;;28.02;42.98
27712;BME280;2377;51.734;8.950;2022-08-19T12:21:35;97676.50;;;27.83;44.53
27712;BME280;2377;51.734;8.950;2022-08-19T12:24:05;97673.53;;;27.97;44.03
27712;BME280;2377;51.734;8.950;2022-08-19T12:26:33;97672.88;;;28.00;43.30
27712;BME280;2377;51.734;8.950;2022-08-19T12:29:00;97663.13;;;27.88;43.86
27712;BME280;2377;51.734;8.950;2022-08-19T12:31:29;97659.16;;;27.82;44.28
27712;BME280;2377;51.734;8.950;2022-08-19T12:33:56;97658.75;;;27.80;44.35
27712;BME280;2377;51.734;8.950;2022-08-19T12:36:24;97660.69;;;27.58;44.21
27712;BME280;2377;51.734;8.950;2022-08-19T12:38:52;97658.06;;;27.46;44.75
27712;BME280;2377;51.734;8.950;2022-08-19T12:41:21;97657.59;;;27.32;45.50
27712;BME280;2377;51.734;8.950;2022-08-19T12:43:49;97654.56;;;27.42;45.61
27712;BME280;2377;51.734;8.950;2022-08-19T12:46:18;97654.34;;;27.47;45.05
27712;BME280;2377;51.734;8.950;2022-08-19T12:48:47;97658.72;;;27.55;45.15
27712;BME280;2377;51.734;8.950;2022-08-19T12:51:17;97656.75;;;27.52;44.37
27712;BME280;2377;51.734;8.950;2022-08-19T12:53:46;97657.31;;;27.46;44.78
27712;BME280;2377;51.734;8.950;2022-08-19T12:56:13;97661.13;;;27.36;45.43
27712;BME280;2377;51.734;8.950;2022-08-19T12:58:42;97664.28;;;27.29;45.47
27712;BME280;2377;51.734;8.950;2022-08-19T13:01:13;97657.78;;;27.14;44.70
27712;BME280;2377;51.734;8.950;2022-08-19T13:03:40;97659.47;;;26.98;45.43
27712;BME280;2377;51.734;8.950;2022-08-19T13:06:10;97655.28;;;26.85;45.72
27712;BME280;2377;51.734;8.950;2022-08-19T13:08:37;97654.38;;;26.81;45.71
27712;BME280;2377;51.734;8.950;2022-08-19T13:11:11;97651.88;;;26.84;45.99
27712;BME280;2377;51.734;8.950;2022-08-19T13:13:40;97650.03;;;26.85;44.55
27712;BME280;2377;51.734;8.950;2022-08-19T13:16:09;97652.00;;;26.88;44.60
27712;BME280;2377;51.734;8.950;2022-08-19T13:18:38;97653.31;;;26.82;44.23
27712;BME280;2377;51.734;8.950;2022-08-19T13:21:10;97651.31;;;26.78;44.13
27712;BME280;2377;51.734;8.950;2022-08-19T13:23:40;97653.63;;;26.80;44.23